Latest Weather Observations for Little Bay

IDN60801

Issued at 9:35 am EST Thursday 2 October 2014 (issued every 30 minutes, with the page automatically refreshed every 10 minutes)

About weather observations | Map of weather stations | Latest weather observations for NSW | Other Formats
Station Details ID: 066051 Name: LITTLE BAY (THE COAST GOLF CLUB) Lat: -33.98 Lon: 151.25 Height: 22.0 m
Data from the previous 72 hours. | See also: Recent months for locations in New South Wales
Date/Time
EST
Temp
°C
App
Temp
°C
Dew
Point
Rel
Hum
%
Delta-T
°C
Wind Press
QNH
hPa
Press
MSL
hPa
Rain
since 9 am
mm
Dir
 
Spd
km/h
Gust
km/h
Spd
kts
Gust
kts
02/09:30am - - - - - WNW 15 26 8 14 - - -
02/09:00am - - - - - NW 11 19 6 10 - - -
02/08:30am - - - - - W 7 13 4 7 - - -
02/08:00am - - - - - W 13 17 7 9 - - -
02/07:30am - - - - - W 13 19 7 10 - - -
02/07:00am - - - - - WNW 9 15 5 8 - - -
02/06:30am - - - - - WNW 11 15 6 8 - - -
02/06:00am - - - - - WNW 11 17 6 9 - - -
02/05:30am - - - - - WNW 11 17 6 9 - - -
02/05:00am - - - - - WNW 11 15 6 8 - - -
02/04:30am - - - - - WNW 11 13 6 7 - - -
02/04:00am - - - - - WNW 11 15 6 8 - - -
02/03:30am - - - - - WNW 11 13 6 7 - - -
02/03:00am - - - - - WNW 11 15 6 8 - - -
02/02:30am - - - - - WNW 11 13 6 7 - - -
02/02:00am - - - - - W 13 15 7 8 - - -
02/01:30am - - - - - W 11 15 6 8 - - -
02/01:00am - - - - - W 11 15 6 8 - - -
02/12:30am - - - - - W 9 15 5 8 - - -
02/12:00am - - - - - W 9 11 5 6 - - -
 
Date/Time
EST
Temp
°C
App
Temp
°C
Dew
Point
Rel
Hum
%
Delta-T
°C
Wind Press
QNH
hPa
Press
MSL
hPa
Rain
since 9 am
mm
Dir
 
Spd
km/h
Gust
km/h
Spd
kts
Gust
kts
01/11:30pm - - - - - W 9 13 5 7 - - -
01/11:00pm - - - - - S 11 15 6 8 - - -
01/10:30pm - - - - - S 11 13 6 7 - - -
01/10:00pm - - - - - S 15 22 8 12 - - -
01/09:30pm - - - - - S 15 22 8 12 - - -
01/09:00pm - - - - - S 17 24 9 13 - - -
01/08:30pm - - - - - S 17 26 9 14 - - -
01/08:00pm - - - - - S 20 28 11 15 - - -
01/07:30pm - - - - - S 22 30 12 16 - - -
01/07:00pm - - - - - SSE 22 33 12 18 - - -
01/06:30pm - - - - - S 22 32 12 17 - - -
01/06:00pm - - - - - S 22 30 12 16 - - -
01/05:30pm - - - - - S 24 35 13 19 - - -
01/05:00pm - - - - - S 24 32 13 17 - - -
01/04:30pm - - - - - SSE 24 33 13 18 - - -
01/04:00pm - - - - - SSE 24 33 13 18 - - -
01/03:30pm - - - - - SSE 24 32 13 17 - - -
01/03:00pm - - - - - S 24 33 13 18 - - -
01/02:30pm - - - - - SSE 28 37 15 20 - - -
01/02:00pm - - - - - SSE 26 33 14 18 - - -
01/01:30pm - - - - - SSE 28 35 15 19 - - -
01/01:00pm - - - - - SSE 26 32 14 17 - - -
01/12:30pm - - - - - S 24 32 13 17 - - -
01/12:00pm - - - - - S 26 32 14 17 - - -
01/11:30am - - - - - S 28 35 15 19 - - -
01/11:00am - - - - - S 28 37 15 20 - - -
01/10:30am - - - - - S 30 41 16 22 - - -
01/10:00am - - - - - SSW 26 41 14 22 - - -
01/09:30am - - - - - WSW 20 32 11 17 - - -
01/09:00am - - - - - WSW 19 32 10 17 - - -
01/08:30am - - - - - WSW 26 41 14 22 - - -
01/08:00am - - - - - WSW 26 37 14 20 - - -
01/07:30am - - - - - WSW 22 39 12 21 - - -
01/07:00am - - - - - SW 24 37 13 20 - - -
01/06:30am - - - - - SW 19 30 10 16 - - -
01/06:00am - - - - - SW 26 43 14 23 - - -
01/05:34am - - - - - SW 30 48 16 26 - - -
01/05:30am - - - - - SW 32 48 17 26 - - -
01/05:02am - - - - - SW 28 57 15 31 - - -
01/05:00am - - - - - SW 26 57 14 31 - - -
01/04:30am - - - - - SW 24 37 13 20 - - -
01/04:00am - - - - - SSW 32 46 17 25 - - -
01/03:30am - - - - - SW 28 43 15 23 - - -
01/03:00am - - - - - SW 28 43 15 23 - - -
01/02:31am - - - - - SW 28 48 15 26 - - -
01/02:30am - - - - - SW 28 41 15 22 - - -
01/02:25am - - - - - SW 28 46 15 25 - - -
01/02:00am - - - - - WSW 11 17 6 9 - - -
01/01:30am - - - - - SSW 6 11 3 6 - - -
01/01:00am - - - - - WSW 6 9 3 5 - - -
01/12:30am - - - - - WSW 6 9 3 5 - - -
01/12:00am - - - - - CALM 0 4 0 2 - - -
 
Date/Time
EST
Temp
°C
App
Temp
°C
Dew
Point
Rel
Hum
%
Delta-T
°C
Wind Press
QNH
hPa
Press
MSL
hPa
Rain
since 9 am
mm
Dir
 
Spd
km/h
Gust
km/h
Spd
kts
Gust
kts
30/11:30pm - - - - - N 2 6 1 3 - - -
30/11:00pm - - - - - NW 4 9 2 5 - - -
30/10:30pm - - - - - N 9 13 5 7 - - -
30/10:00pm - - - - - N 7 9 4 5 - - -
30/09:30pm - - - - - N 7 9 4 5 - - -
30/09:00pm - - - - - N 9 15 5 8 - - -
30/08:30pm - - - - - NNW 9 15 5 8 - - -
30/08:00pm - - - - - NNW 11 17 6 9 - - -
30/07:30pm - - - - - NW 11 20 6 11 - - -
30/07:00pm - - - - - NNW 11 15 6 8 - - -
30/06:30pm - - - - - NW 7 11 4 6 - - -
30/06:00pm - - - - - NW 11 22 6 12 - - -
30/05:30pm - - - - - W 11 22 6 12 - - -
30/05:00pm - - - - - WNW 20 30 11 16 - - -
30/04:30pm - - - - - WNW 19 30 10 16 - - -
30/04:00pm - - - - - NW 15 28 8 15 - - -
30/03:30pm - - - - - N 15 24 8 13 - - -
30/03:00pm - - - - - N 19 26 10 14 - - -
30/02:30pm - - - - - N 19 30 10 16 - - -
30/02:00pm - - - - - N 28 39 15 21 - - -
30/01:30pm - - - - - N 24 35 13 19 - - -
30/01:00pm - - - - - NNE 26 32 14 17 - - -
30/12:30pm - - - - - NNE 17 22 9 12 - - -
30/12:00pm - - - - - NNE 15 19 8 10 - - -
30/11:30am - - - - - N 17 26 9 14 - - -
30/11:00am - - - - - NNW 19 32 10 17 - - -
30/10:30am - - - - - N 17 30 9 16 - - -
30/10:00am - - - - - N 13 19 7 10 - - -
30/09:30am - - - - - N 13 22 7 12 - - -
30/09:00am - - - - - NNW 9 17 5 9 - - -
30/08:30am - - - - - NNW 9 15 5 8 - - -
30/08:00am - - - - - NNW 7 13 4 7 - - -
30/07:30am - - - - - NW 7 11 4 6 - - -
30/07:00am - - - - - WNW 9 13 5 7 - - -
30/06:30am - - - - - WNW 7 9 4 5 - - -
30/06:00am - - - - - NW 6 7 3 4 - - -
30/05:30am - - - - - NNW 6 7 3 4 - - -
30/05:00am - - - - - NNW 4 6 2 3 - - -
30/04:30am - - - - - NNW 4 6 2 3 - - -
30/04:00am - - - - - N 6 7 3 4 - - -
30/03:30am - - - - - N 4 4 2 2 - - -
30/03:00am - - - - - NW 4 4 2 2 - - -
30/02:30am - - - - - CALM 0 0 0 0 - - -
30/02:00am - - - - - CALM 0 0 0 0 - - -
30/01:30am - - - - - WSW 4 4 2 2 - - -
30/01:00am - - - - - WSW 2 4 1 2 - - -
30/12:30am - - - - - WSW 6 6 3 3 - - -
30/12:00am - - - - - SW 6 7 3 4 - - -
 
Date/Time
EST
Temp
°C
App
Temp
°C
Dew
Point
Rel
Hum
%
Delta-T
°C
Wind Press
QNH
hPa
Press
MSL
hPa
Rain
since 9 am
mm
Dir
 
Spd
km/h
Gust
km/h
Spd
kts
Gust
kts
29/11:30pm - - - - - CALM 0 0 0 0 - - -
29/11:00pm - - - - - SSE 2 4 1 2 - - -
29/10:30pm - - - - - SSW 7 11 4 6 - - -
29/10:00pm - - - - - S 9 13 5 7 - - -
29/09:30pm - - - - - SSW 7 15 4 8 - - -
29/09:00pm - - - - - SSW 22 32 12 17 - - -
29/08:30pm - - - - - S 28 35 15 19 - - -
29/08:00pm - - - - - S 28 35 15 19 - - -
29/07:30pm - - - - - SSW 26 37 14 20 - - -
29/07:00pm - - - - - SSW 28 43 15 23 - - -
29/06:58pm - - - - - SSW 28 41 15 22 - - -
29/06:30pm - - - - - S 4 6 2 3 - - -
29/06:00pm - - - - - N 4 6 2 3 - - -
29/05:30pm - - - - - NNE 7 15 4 8 - - -
29/05:00pm - - - - - NNE 13 17 7 9 - - -
29/04:30pm - - - - - N 13 19 7 10 - - -
29/04:00pm - - - - - NNE 17 22 9 12 - - -
29/03:30pm - - - - - NNE 19 26 10 14 - - -
29/03:00pm - - - - - WNW 11 20 6 11 - - -
29/02:30pm - - - - - W 13 26 7 14 - - -
29/02:00pm - - - - - N 11 17 6 9 - - -
29/01:30pm - - - - - WNW 11 20 6 11 - - -
29/01:00pm - - - - - WNW 13 22 7 12 - - -
29/12:30pm - - - - - SSW 7 15 4 8 - - -
29/12:00pm - - - - - W 7 17 4 9 - - -
29/11:30am - - - - - NW 9 17 5 9 - - -
29/11:00am - - - - - NNE 20 26 11 14 - - -
29/10:30am - - - - - NNE 19 28 10 15 - - -
29/10:00am - - - - - NE 19 22 10 12 - - -

Other Formats:

Comma delimited format used in spreadsheet applications
http://www.bom.gov.au/fwo/IDN60801/IDN60801.94780.axf

JavaScript Object Notation format (JSON) in row-major order
http://www.bom.gov.au/fwo/IDN60801/IDN60801.94780.json